^^
Station Historical Data
Daily Summary for January 29, 2017 Units:  English    Metric   Both
« Previous Day
Next Day »
Daily Weekly Monthly Yearly Custom
  High: Low: Average:
Temperature: 41.7 °F 30.8 °F 35.5 °F
Dew Point: 26.1 °F 15.5 °F 21.3 °F
Humidity: 76% 35% 58%
Wind Speed: 7.0mph 0.0mph 1.6mph
Wind Gust: 20.0mph - -
Wind- - SW
Pressure: 29.75 in 29.67 in -
Precipitation: 0.00 in    
Historical Graphs
 
 
Tabular Data for January 29, 2017
Time Temperature Dew Point Pressure Wind Wind Speed Wind Gust Humidity Rainfall Rate (Hourly) Conditions
00:00 33.7 °F 23.9 °F 29.74 in SW 1.0 mph 6.0 mph 67% 0.00 in BKN
00:10 33.8 °F 24.0 °F 29.74 in SW 2.0 mph 5.0 mph 67% 0.00 in BKN
00:20 33.8 °F 24.0 °F 29.74 in SSW 1.0 mph 7.0 mph 67% 0.00 in BKN
00:30 33.8 °F 24.0 °F 29.73 in Calm   3.0 mph 67% 0.00 in BKN
00:40 33.8 °F 24.0 °F 29.73 in Calm   3.0 mph 67% 0.00 in BKN
00:50 33.7 °F 23.9 °F 29.73 in SSW 1.0 mph 3.0 mph 67% 0.00 in BKN
01:00 33.7 °F 23.9 °F 29.72 in Calm   3.0 mph 67% 0.00 in BKN
01:10 33.6 °F 23.8 °F 29.72 in Calm   2.0 mph 67% 0.00 in BKN
01:20 33.6 °F 23.8 °F 29.71 in Calm   2.0 mph 67% 0.00 in BKN
01:40 33.6 °F 23.8 °F 29.72 in SSE 1.0 mph 4.0 mph 67% 0.00 in BKN
01:50 33.6 °F 23.8 °F 29.72 in SSW 2.0 mph 5.0 mph 67% 0.00 in BKN
02:00 33.6 °F 24.2 °F 29.72 in South 2.0 mph 8.0 mph 68% 0.00 in BKN
02:10 33.7 °F 23.9 °F 29.72 in SSW 1.0 mph 5.0 mph 67% 0.00 in BKN
02:20 33.6 °F 24.1 °F 29.72 in SSW 1.0 mph 4.0 mph 68% 0.00 in BKN
02:30 33.2 °F 24.1 °F 29.72 in SSW 2.0 mph 3.0 mph 69% 0.00 in BKN
02:40 32.9 °F 24.2 °F 29.72 in Calm   3.0 mph 70% 0.00 in BKN
02:50 32.5 °F 24.1 °F 29.72 in Calm   2.0 mph 71% 0.00 in BKN
03:00 32.4 °F 24.7 °F 29.72 in SSW 1.0 mph 3.0 mph 73% 0.00 in BKN
03:10 32.7 °F 24.9 °F 29.72 in SSW 2.0 mph 4.0 mph 73% 0.00 in SCT
03:20 32.8 °F 25.1 °F 29.72 in SW 1.0 mph 4.0 mph 73% 0.00 in SCT
03:30 33.0 °F 25.3 °F 29.71 in South 1.0 mph 4.0 mph 73% 0.00 in SCT
03:40 33.1 °F 25.4 °F 29.71 in Calm   3.0 mph 73% 0.00 in SCT
03:50 32.9 °F 25.5 °F 29.71 in SSW 2.0 mph 4.0 mph 74% 0.00 in SCT
04:00 32.6 °F 25.3 °F 29.71 in SSW 1.0 mph 5.0 mph 74% 0.00 in SCT
04:10 32.3 °F 25.3 °F 29.71 in SW 2.0 mph 4.0 mph 75% 0.00 in BKN
04:20 32.2 °F 25.4 °F 29.72 in SSW 2.0 mph 7.0 mph 76% 0.00 in BKN
04:30 32.2 °F 25.5 °F 29.72 in SSW 2.0 mph 8.0 mph 76% 0.00 in BKN
04:40 32.3 °F 25.5 °F 29.72 in SSW 1.0 mph 7.0 mph 76% 0.00 in BKN
04:50 32.3 °F 25.3 °F 29.72 in Calm   6.0 mph 75% 0.00 in BKN
05:00 32.3 °F 25.6 °F 29.72 in Calm   3.0 mph 76% 0.00 in BKN
05:10 32.3 °F 25.6 °F 29.72 in SSW 1.0 mph 5.0 mph 76% 0.00 in BKN
05:20 32.3 °F 25.3 °F 29.72 in South 1.0 mph 5.0 mph 75% 0.00 in BKN
05:30 32.4 °F 25.0 °F 29.72 in SSW 1.0 mph 4.0 mph 74% 0.00 in BKN
05:40 32.3 °F 24.9 °F 29.72 in SW 1.0 mph 3.0 mph 74% 0.00 in BKN
05:50 32.4 °F 25.0 °F 29.72 in Calm   4.0 mph 74% 0.00 in BKN
06:00 32.4 °F 24.7 °F 29.72 in SSW 1.0 mph 5.0 mph 73% 0.00 in BKN
06:10 32.5 °F 24.8 °F 29.72 in Calm   5.0 mph 73% 0.00 in BKN
06:20 32.5 °F 24.8 °F 29.72 in Calm   5.0 mph 73% 0.00 in BKN
06:30 32.6 °F 24.9 °F 29.72 in SSW 2.0 mph 4.0 mph 73% 0.00 in BKN
06:40 32.6 °F 24.9 °F 29.72 in SSW 1.0 mph 5.0 mph 73% 0.00 in BKN
06:50 32.5 °F 24.8 °F 29.72 in SSW 2.0 mph 5.0 mph 73% 0.00 in BKN
07:00 32.7 °F 25.0 °F 29.72 in Calm   6.0 mph 73% 0.00 in BKN
07:10 32.7 °F 25.0 °F 29.72 in Calm   4.0 mph 73% 0.00 in BKN
07:20 32.7 °F 24.7 °F 29.72 in SW 1.0 mph 5.0 mph 72% 0.00 in BKN
07:30 32.8 °F 24.8 °F 29.72 in SSW 2.0 mph 6.0 mph 72% 0.00 in BKN
07:40 32.9 °F 24.8 °F 29.72 in Calm   4.0 mph 72% 0.00 in BKN
07:50 33.1 °F 25.0 °F 29.72 in SSW 1.0 mph 6.0 mph 72% 0.00 in BKN
08:00 33.3 °F 25.2 °F 29.73 in SSW 2.0 mph 5.0 mph 72% 0.00 in BKN
08:10 33.6 °F 25.2 °F 29.73 in SW 2.0 mph 4.0 mph 71% 0.00 in BKN
08:20 33.8 °F 25.4 °F 29.73 in Calm   6.0 mph 71% 0.00 in BKN
08:30 34.0 °F 25.2 °F 29.73 in SW 1.0 mph 12.0 mph 70% 0.00 in BKN
08:40 34.0 °F 24.9 °F 29.74 in SSW 5.0 mph 10.0 mph 69% 0.00 in BKN
08:50 34.3 °F 25.2 °F 29.74 in SW 3.0 mph 6.0 mph 69% 0.00 in BKN
09:00 34.7 °F 25.5 °F 29.74 in SSW 2.0 mph 8.0 mph 69% 0.00 in BKN
09:10 34.8 °F 25.3 °F 29.74 in SW 3.0 mph 11.0 mph 68% 0.00 in BKN
09:20 35.1 °F 25.2 °F 29.74 in SSW 5.0 mph 12.0 mph 67% 0.00 in BKN
09:30 36.0 °F 26.1 °F 29.74 in SSW 3.0 mph 8.0 mph 67% 0.00 in BKN
09:50 37.4 °F 25.6 °F 29.74 in SSW 7.0 mph 12.0 mph 62% 0.00 in BKN
10:10 37.9 °F 23.6 °F 29.75 in SW 5.0 mph 12.0 mph 56% 0.00 in BKN
10:20 38.0 °F 23.6 °F 29.74 in SW 3.0 mph 9.0 mph 56% 0.00 in BKN
10:30 37.6 °F 22.0 °F 29.74 in WSW 6.0 mph 12.0 mph 53% 0.00 in BKN
10:40 37.3 °F 20.3 °F 29.74 in WSW 5.0 mph 14.0 mph 50% 0.00 in BKN
10:50 37.2 °F 21.6 °F 29.74 in WSW 2.0 mph 14.0 mph 53% 0.00 in BKN
11:00 37.0 °F 21.0 °F 29.74 in SSW 3.0 mph 18.0 mph 52% 0.00 in BKN
11:20 38.1 °F 19.6 °F 29.74 in West 2.0 mph 12.0 mph 47% 0.00 in FEW
11:30 38.2 °F 19.2 °F 29.74 in NW 2.0 mph 12.0 mph 46% 0.00 in FEW
11:40 37.9 °F 18.9 °F 29.74 in West 6.0 mph 12.0 mph 46% 0.00 in FEW
11:50 38.0 °F 20.0 °F 29.73 in SW 5.0 mph 11.0 mph 48% 0.00 in FEW
12:10 39.0 °F 21.0 °F 29.72 in WSW 2.0 mph 12.0 mph 48% 0.00 in FEW
12:20 39.7 °F 20.1 °F 29.71 in West 2.0 mph 8.0 mph 45% 0.00 in FEW
12:30 39.4 °F 19.3 °F 29.70 in WSW 2.0 mph 9.0 mph 44% 0.00 in FEW
12:40 40.0 °F 18.7 °F 29.70 in WSW 3.0 mph 11.0 mph 42% 0.00 in FEW
12:50 40.3 °F 19.0 °F 29.69 in West 2.0 mph 10.0 mph 42% 0.00 in FEW
13:00 40.4 °F 18.0 °F 29.69 in WSW 3.0 mph 11.0 mph 40% 0.00 in FEW
13:10 40.3 °F 17.2 °F 29.68 in West 3.0 mph 15.0 mph 39% 0.00 in FEW
13:30 40.8 °F 17.1 °F 29.68 in SE 3.0 mph 12.0 mph 38% 0.00 in FEW
13:40 40.9 °F 17.2 °F 29.68 in NW 2.0 mph 10.0 mph 38% 0.00 in FEW
13:50 41.6 °F 17.9 °F 29.68 in SW 2.0 mph 6.0 mph 38% 0.00 in FEW
14:00 40.5 °F 16.2 °F 29.67 in North 2.0 mph 12.0 mph 37% 0.00 in FEW
14:10 40.8 °F 17.1 °F 29.67 in WSW 2.0 mph 10.0 mph 38% 0.00 in SCT
14:20 40.4 °F 15.5 °F 29.67 in SW 6.0 mph 14.0 mph 36% 0.00 in SCT
14:30 41.2 °F 15.6 °F 29.67 in West 7.0 mph 14.0 mph 35% 0.00 in SCT
14:50 41.7 °F 16.7 °F 29.68 in SSW 2.0 mph 12.0 mph 36% 0.00 in SCT
15:00 40.7 °F 16.5 °F 29.69 in WSW 3.0 mph 20.0 mph 37% 0.00 in SCT
15:10 39.7 °F 16.7 °F 29.69 in WSW 2.0 mph 8.0 mph 39% 0.00 in SCT
15:20 40.4 °F 16.8 °F 29.69 in SW 3.0 mph 11.0 mph 38% 0.00 in SCT
15:30 41.1 °F 17.4 °F 29.70 in WNW 1.0 mph 7.0 mph 38% 0.00 in SCT
15:40 40.8 °F 16.5 °F 29.70 in SW 5.0 mph 9.0 mph 37% 0.00 in SCT
15:50 40.2 °F 16.0 °F 29.71 in WSW 7.0 mph 12.0 mph 37% 0.00 in SCT
16:00 39.7 °F 16.7 °F 29.71 in SW 2.0 mph 10.0 mph 39% 0.00 in SCT
16:10 39.5 °F 17.1 °F 29.71 in WSW 2.0 mph 8.0 mph 40% 0.00 in BKN
16:20 38.9 °F 16.6 °F 29.71 in SW 6.0 mph 15.0 mph 40% 0.00 in BKN
16:30 38.6 °F 16.9 °F 29.72 in SW 3.0 mph 15.0 mph 41% 0.00 in BKN
16:50 38.2 °F 16.6 °F 29.72 in West 3.0 mph 8.0 mph 41% 0.00 in BKN
17:00 38.1 °F 17.0 °F 29.72 in Calm   6.0 mph 42% 0.00 in BKN
17:10 38.0 °F 17.5 °F 29.72 in SSW 2.0 mph 6.0 mph 43% 0.00 in BKN
17:20 37.9 °F 17.4 °F 29.72 in SW 2.0 mph 9.0 mph 43% 0.00 in BKN
17:30 37.8 °F 17.8 °F 29.72 in Calm   8.0 mph 44% 0.00 in BKN
17:40 37.5 °F 17.5 °F 29.72 in WSW 1.0 mph 5.0 mph 44% 0.00 in BKN
17:50 37.3 °F 17.9 °F 29.73 in SW 2.0 mph 7.0 mph 45% 0.00 in BKN
18:00 37.2 °F 17.8 °F 29.73 in Calm   7.0 mph 45% 0.00 in BKN
18:10 37.2 °F 17.7 °F 29.73 in SW 1.0 mph 4.0 mph 45% 0.00 in BKN
18:20 37.1 °F 18.2 °F 29.73 in SSW 1.0 mph 4.0 mph 46% 0.00 in BKN
18:30 37.0 °F 18.1 °F 29.74 in Calm   5.0 mph 46% 0.00 in BKN
18:40 36.9 °F 18.5 °F 29.74 in Calm   5.0 mph 47% 0.00 in BKN
18:50 36.7 °F 18.3 °F 29.74 in SW 1.0 mph 6.0 mph 47% 0.00 in BKN
19:00 36.7 °F 18.8 °F 29.74 in SW 1.0 mph 6.0 mph 48% 0.00 in BKN
19:10 36.6 °F 18.8 °F 29.74 in Calm   6.0 mph 48% 0.00 in BKN
19:20 36.4 °F 19.0 °F 29.75 in Calm   4.0 mph 49% 0.00 in BKN
19:30 36.2 °F 19.3 °F 29.75 in Calm   2.0 mph 50% 0.00 in BKN
19:40 36.0 °F 18.7 °F 29.75 in Calm   3.0 mph 49% 0.00 in BKN
19:50 35.9 °F 18.6 °F 29.75 in SW 1.0 mph 2.0 mph 49% 0.00 in BKN
20:00 35.5 °F 19.1 °F 29.75 in Calm   2.0 mph 51% 0.00 in BKN
20:10 35.4 °F 19.9 °F 29.75 in SSW 1.0 mph 3.0 mph 53% 0.00 in BKN
20:20 35.2 °F 19.8 °F 29.75 in SSW 1.0 mph 4.0 mph 53% 0.00 in BKN
20:30 35.1 °F 19.7 °F 29.75 in SSW 1.0 mph 3.0 mph 53% 0.00 in BKN
20:40 35.1 °F 19.7 °F 29.74 in SSW 1.0 mph 4.0 mph 53% 0.00 in BKN
20:50 35.1 °F 19.2 °F 29.74 in SSW 1.0 mph 5.0 mph 52% 0.00 in BKN
21:00 35.0 °F 19.6 °F 29.74 in Calm   3.0 mph 53% 0.00 in BKN
21:10 35.0 °F 19.5 °F 29.74 in SSW 1.0 mph 5.0 mph 53% 0.00 in BKN
21:20 34.9 °F 19.9 °F 29.74 in SSW 1.0 mph 3.0 mph 54% 0.00 in BKN
21:30 34.8 °F 19.8 °F 29.74 in SW 1.0 mph 3.0 mph 54% 0.00 in BKN
21:40 34.6 °F 20.0 °F 29.74 in Calm   5.0 mph 55% 0.00 in BKN
21:50 34.1 °F 19.6 °F 29.74 in SW 1.0 mph 4.0 mph 55% 0.00 in BKN
22:00 34.1 °F 19.6 °F 29.74 in SW 1.0 mph 5.0 mph 55% 0.00 in BKN
22:10 33.9 °F 19.8 °F 29.74 in SW 1.0 mph 4.0 mph 56% 0.00 in SCT
22:20 33.7 °F 20.5 °F 29.74 in Calm   3.0 mph 58% 0.00 in SCT
22:30 33.7 °F 20.5 °F 29.74 in Calm   5.0 mph 58% 0.00 in SCT
22:40 33.5 °F 20.3 °F 29.75 in SSW 1.0 mph 3.0 mph 58% 0.00 in SCT
22:50 33.1 °F 20.3 °F 29.75 in Calm   1.0 mph 59% 0.00 in SCT
23:00 32.6 °F 19.9 °F 29.75 in Calm     59% 0.00 in SCT
23:10 32.1 °F 19.8 °F 29.75 in Calm   1.0 mph 60% 0.00 in BKN
23:20 31.8 °F 19.5 °F 29.75 in Calm     60% 0.00 in BKN
23:30 31.6 °F 19.7 °F 29.75 in Calm   1.0 mph 61% 0.00 in BKN
23:40 31.6 °F 20.1 °F 29.75 in Calm   1.0 mph 62% 0.00 in BKN
23:50 30.8 °F 19.7 °F 29.75 in Calm   1.0 mph 63% 0.00 in BKN
TarryTown NY Weather
Compliments of Weather Underground - 1.75 mb